sensor_id;sensor_type;location;lat;lon;timestamp;P1;durP1;ratioP1;P2;durP2;ratioP2
9597;SDS011;4837;50.890;4.724;2023-05-10T00:00:28;11.43;;;8.15;;
9597;SDS011;4837;50.890;4.724;2023-05-10T00:02:54;11.40;;;7.85;;
9597;SDS011;4837;50.890;4.724;2023-05-10T00:05:20;14.57;;;8.00;;
9597;SDS011;4837;50.890;4.724;2023-05-10T00:07:46;11.70;;;7.63;;
9597;SDS011;4837;50.890;4.724;2023-05-10T00:10:12;10.82;;;7.68;;
9597;SDS011;4837;50.890;4.724;2023-05-10T00:12:38;11.60;;;7.00;;
9597;SDS011;4837;50.890;4.724;2023-05-10T00:15:05;12.18;;;7.68;;
9597;SDS011;4837;50.890;4.724;2023-05-10T00:17:31;9.88;;;7.15;;
9597;SDS011;4837;50.890;4.724;2023-05-10T00:19:57;11.63;;;7.10;;
9597;SDS011;4837;50.890;4.724;2023-05-10T00:22:23;10.73;;;7.57;;
9597;SDS011;4837;50.890;4.724;2023-05-10T00:24:49;10.13;;;7.03;;
9597;SDS011;4837;50.890;4.724;2023-05-10T00:27:15;13.57;;;7.45;;
9597;SDS011;4837;50.890;4.724;2023-05-10T00:29:41;11.13;;;7.38;;
9597;SDS011;4837;50.890;4.724;2023-05-10T00:32:07;12.48;;;7.88;;
9597;SDS011;4837;50.890;4.724;2023-05-10T00:34:33;10.30;;;8.00;;
9597;SDS011;4837;50.890;4.724;2023-05-10T00:36:59;12.35;;;7.18;;
9597;SDS011;4837;50.890;4.724;2023-05-10T00:39:26;11.85;;;7.53;;
9597;SDS011;4837;50.890;4.724;2023-05-10T00:41:53;13.52;;;8.10;;
9597;SDS011;4837;50.890;4.724;2023-05-10T00:44:19;12.27;;;7.65;;
9597;SDS011;4837;50.890;4.724;2023-05-10T00:46:46;11.18;;;8.15;;
9597;SDS011;4837;50.890;4.724;2023-05-10T00:49:12;9.75;;;7.70;;
9597;SDS011;4837;50.890;4.724;2023-05-10T00:51:38;13.27;;;8.10;;
9597;SDS011;4837;50.890;4.724;2023-05-10T00:54:04;11.93;;;8.57;;
9597;SDS011;4837;50.890;4.724;2023-05-10T00:56:31;16.00;;;8.48;;
9597;SDS011;4837;50.890;4.724;2023-05-10T00:58:57;17.25;;;8.20;;
9597;SDS011;4837;50.890;4.724;2023-05-10T01:01:24;13.15;;;8.50;;
9597;SDS011;4837;50.890;4.724;2023-05-10T01:03:50;11.77;;;8.68;;
9597;SDS011;4837;50.890;4.724;2023-05-10T01:06:17;12.57;;;8.27;;
9597;SDS011;4837;50.890;4.724;2023-05-10T01:08:43;15.55;;;8.82;;
9597;SDS011;4837;50.890;4.724;2023-05-10T01:11:09;13.07;;;8.63;;
9597;SDS011;4837;50.890;4.724;2023-05-10T01:13:36;12.07;;;8.40;;
9597;SDS011;4837;50.890;4.724;2023-05-10T01:16:03;12.70;;;8.40;;
9597;SDS011;4837;50.890;4.724;2023-05-10T01:18:32;11.98;;;8.27;;
9597;SDS011;4837;50.890;4.724;2023-05-10T01:21:04;12.55;;;8.68;;
9597;SDS011;4837;50.890;4.724;2023-05-10T01:26:21;13.27;;;9.30;;
9597;SDS011;4837;50.890;4.724;2023-05-10T01:31:19;16.77;;;9.88;;
9597;SDS011;4837;50.890;4.724;2023-05-10T01:33:55;12.73;;;9.95;;
9597;SDS011;4837;50.890;4.724;2023-05-10T01:46:30;16.95;;;10.10;;
9597;SDS011;4837;50.890;4.724;2023-05-10T01:48:57;15.52;;;10.57;;
9597;SDS011;4837;50.890;4.724;2023-05-10T01:51:26;16.20;;;10.57;;
9597;SDS011;4837;50.890;4.724;2023-05-10T01:53:54;15.00;;;11.13;;
9597;SDS011;4837;50.890;4.724;2023-05-10T01:56:23;19.02;;;10.68;;
9597;SDS011;4837;50.890;4.724;2023-05-10T01:58:51;15.63;;;10.93;;
9597;SDS011;4837;50.890;4.724;2023-05-10T02:01:18;20.45;;;11.45;;
9597;SDS011;4837;50.890;4.724;2023-05-10T02:03:45;19.75;;;12.10;;
9597;SDS011;4837;50.890;4.724;2023-05-10T02:06:12;17.70;;;10.32;;
9597;SDS011;4837;50.890;4.724;2023-05-10T02:08:40;14.13;;;10.32;;
9597;SDS011;4837;50.890;4.724;2023-05-10T02:11:06;14.15;;;10.57;;
9597;SDS011;4837;50.890;4.724;2023-05-10T02:13:33;14.38;;;11.43;;
9597;SDS011;4837;50.890;4.724;2023-05-10T02:16:00;16.63;;;12.02;;
9597;SDS011;4837;50.890;4.724;2023-05-10T02:18:27;16.95;;;12.05;;
9597;SDS011;4837;50.890;4.724;2023-05-10T02:20:53;16.13;;;11.25;;
9597;SDS011;4837;50.890;4.724;2023-05-10T02:23:24;17.38;;;11.93;;
9597;SDS011;4837;50.890;4.724;2023-05-10T02:25:51;17.77;;;11.88;;
9597;SDS011;4837;50.890;4.724;2023-05-10T02:28:19;17.27;;;12.35;;
9597;SDS011;4837;50.890;4.724;2023-05-10T02:30:46;16.60;;;12.05;;
9597;SDS011;4837;50.890;4.724;2023-05-10T02:33:13;19.45;;;12.23;;
9597;SDS011;4837;50.890;4.724;2023-05-10T02:35:39;23.65;;;11.88;;
9597;SDS011;4837;50.890;4.724;2023-05-10T02:38:06;14.13;;;11.77;;
9597;SDS011;4837;50.890;4.724;2023-05-10T02:40:33;17.60;;;12.00;;
9597;SDS011;4837;50.890;4.724;2023-05-10T02:42:59;19.75;;;13.07;;
9597;SDS011;4837;50.890;4.724;2023-05-10T02:45:28;17.33;;;11.80;;
9597;SDS011;4837;50.890;4.724;2023-05-10T02:47:55;18.02;;;12.00;;
9597;SDS011;4837;50.890;4.724;2023-05-10T02:50:21;13.77;;;11.68;;
9597;SDS011;4837;50.890;4.724;2023-05-10T02:52:51;15.23;;;10.90;;
9597;SDS011;4837;50.890;4.724;2023-05-10T02:55:19;15.60;;;12.02;;
9597;SDS011;4837;50.890;4.724;2023-05-10T02:57:56;19.52;;;12.90;;
9597;SDS011;4837;50.890;4.724;2023-05-10T03:00:24;14.63;;;12.07;;
9597;SDS011;4837;50.890;4.724;2023-05-10T03:02:50;16.15;;;11.45;;
9597;SDS011;4837;50.890;4.724;2023-05-10T03:05:16;16.10;;;11.70;;
9597;SDS011;4837;50.890;4.724;2023-05-10T03:07:43;17.70;;;12.63;;
9597;SDS011;4837;50.890;4.724;2023-05-10T03:10:09;16.08;;;12.13;;
9597;SDS011;4837;50.890;4.724;2023-05-10T03:15:31;19.30;;;12.30;;
9597;SDS011;4837;50.890;4.724;2023-05-10T03:18:14;18.13;;;12.52;;
9597;SDS011;4837;50.890;4.724;2023-05-10T03:20:48;15.38;;;11.25;;
9597;SDS011;4837;50.890;4.724;2023-05-10T03:25:44;16.77;;;12.23;;
9597;SDS011;4837;50.890;4.724;2023-05-10T03:28:12;14.02;;;11.80;;
9597;SDS011;4837;50.890;4.724;2023-05-10T03:30:40;20.67;;;12.13;;
9597;SDS011;4837;50.890;4.724;2023-05-10T03:33:07;18.10;;;12.57;;
9597;SDS011;4837;50.890;4.724;2023-05-10T03:35:33;20.90;;;12.43;;
9597;SDS011;4837;50.890;4.724;2023-05-10T03:37:59;21.05;;;12.48;;
9597;SDS011;4837;50.890;4.724;2023-05-10T03:40:25;16.50;;;11.00;;
9597;SDS011;4837;50.890;4.724;2023-05-10T03:42:54;15.27;;;10.95;;
9597;SDS011;4837;50.890;4.724;2023-05-10T03:45:20;17.52;;;11.05;;
9597;SDS011;4837;50.890;4.724;2023-05-10T03:47:46;12.25;;;9.15;;
9597;SDS011;4837;50.890;4.724;2023-05-10T03:50:12;13.48;;;9.35;;
9597;SDS011;4837;50.890;4.724;2023-05-10T03:52:38;11.95;;;8.75;;
9597;SDS011;4837;50.890;4.724;2023-05-10T03:55:05;13.73;;;8.93;;
9597;SDS011;4837;50.890;4.724;2023-05-10T03:57:31;12.57;;;9.30;;
9597;SDS011;4837;50.890;4.724;2023-05-10T03:59:57;15.38;;;9.50;;
9597;SDS011;4837;50.890;4.724;2023-05-10T04:02:23;17.60;;;10.30;;
9597;SDS011;4837;50.890;4.724;2023-05-10T04:04:49;17.90;;;10.73;;
9597;SDS011;4837;50.890;4.724;2023-05-10T04:07:16;19.75;;;12.18;;
9597;SDS011;4837;50.890;4.724;2023-05-10T04:09:43;18.25;;;13.00;;
9597;SDS011;4837;50.890;4.724;2023-05-10T04:12:09;23.88;;;13.85;;
9597;SDS011;4837;50.890;4.724;2023-05-10T04:14:35;23.30;;;14.32;;
9597;SDS011;4837;50.890;4.724;2023-05-10T04:17:02;21.15;;;15.07;;
9597;SDS011;4837;50.890;4.724;2023-05-10T04:19:29;27.33;;;15.45;;
9597;SDS011;4837;50.890;4.724;2023-05-10T04:21:55;24.77;;;15.63;;
9597;SDS011;4837;50.890;4.724;2023-05-10T04:24:21;25.45;;;16.70;;
9597;SDS011;4837;50.890;4.724;2023-05-10T04:26:47;27.65;;;15.75;;
9597;SDS011;4837;50.890;4.724;2023-05-10T04:29:13;25.42;;;16.90;;
9597;SDS011;4837;50.890;4.724;2023-05-10T04:31:39;24.08;;;15.27;;
9597;SDS011;4837;50.890;4.724;2023-05-10T04:34:06;22.73;;;15.18;;
9597;SDS011;4837;50.890;4.724;2023-05-10T04:36:32;23.02;;;15.55;;
9597;SDS011;4837;50.890;4.724;2023-05-10T04:39:00;24.15;;;15.68;;
9597;SDS011;4837;50.890;4.724;2023-05-10T04:41:27;21.17;;;14.95;;
9597;SDS011;4837;50.890;4.724;2023-05-10T04:43:54;23.25;;;15.82;;
9597;SDS011;4837;50.890;4.724;2023-05-10T04:46:20;21.83;;;15.93;;
9597;SDS011;4837;50.890;4.724;2023-05-10T04:48:46;23.27;;;16.35;;
9597;SDS011;4837;50.890;4.724;2023-05-10T04:51:13;24.08;;;16.42;;
9597;SDS011;4837;50.890;4.724;2023-05-10T04:53:39;23.95;;;16.55;;
9597;SDS011;4837;50.890;4.724;2023-05-10T04:56:05;24.48;;;17.30;;
9597;SDS011;4837;50.890;4.724;2023-05-10T04:58:32;26.00;;;16.77;;
9597;SDS011;4837;50.890;4.724;2023-05-10T05:01:04;26.15;;;17.05;;
9597;SDS011;4837;50.890;4.724;2023-05-10T05:03:31;27.30;;;17.60;;
9597;SDS011;4837;50.890;4.724;2023-05-10T05:05:57;26.30;;;17.80;;
9597;SDS011;4837;50.890;4.724;2023-05-10T05:08:23;27.23;;;17.65;;
9597;SDS011;4837;50.890;4.724;2023-05-10T05:10:49;26.02;;;18.05;;
9597;SDS011;4837;50.890;4.724;2023-05-10T05:13:15;27.38;;;18.83;;
9597;SDS011;4837;50.890;4.724;2023-05-10T05:15:42;29.80;;;18.58;;
9597;SDS011;4837;50.890;4.724;2023-05-10T05:18:08;30.58;;;18.70;;
9597;SDS011;4837;50.890;4.724;2023-05-10T05:20:34;33.05;;;19.38;;
9597;SDS011;4837;50.890;4.724;2023-05-10T05:23:00;29.30;;;19.15;;
9597;SDS011;4837;50.890;4.724;2023-05-10T05:25:26;29.85;;;20.17;;
9597;SDS011;4837;50.890;4.724;2023-05-10T05:27:52;27.40;;;17.88;;
9597;SDS011;4837;50.890;4.724;2023-05-10T05:30:19;32.33;;;20.23;;
9597;SDS011;4837;50.890;4.724;2023-05-10T05:32:45;30.88;;;19.75;;
9597;SDS011;4837;50.890;4.724;2023-05-10T05:35:12;30.77;;;18.92;;
9597;SDS011;4837;50.890;4.724;2023-05-10T05:37:38;30.05;;;18.30;;
9597;SDS011;4837;50.890;4.724;2023-05-10T05:40:04;28.05;;;18.80;;
9597;SDS011;4837;50.890;4.724;2023-05-10T05:42:31;30.42;;;18.98;;
9597;SDS011;4837;50.890;4.724;2023-05-10T05:44:57;29.20;;;18.63;;
9597;SDS011;4837;50.890;4.724;2023-05-10T05:47:24;28.25;;;18.83;;
9597;SDS011;4837;50.890;4.724;2023-05-10T05:49:50;28.70;;;18.85;;
9597;SDS011;4837;50.890;4.724;2023-05-10T05:52:16;27.73;;;19.25;;
9597;SDS011;4837;50.890;4.724;2023-05-10T05:54:42;30.50;;;19.58;;
9597;SDS011;4837;50.890;4.724;2023-05-10T05:57:08;30.02;;;20.20;;
9597;SDS011;4837;50.890;4.724;2023-05-10T05:59:35;25.88;;;18.90;;
9597;SDS011;4837;50.890;4.724;2023-05-10T06:02:01;28.02;;;18.15;;
9597;SDS011;4837;50.890;4.724;2023-05-10T06:04:27;28.95;;;18.92;;
9597;SDS011;4837;50.890;4.724;2023-05-10T06:06:53;27.02;;;17.83;;
9597;SDS011;4837;50.890;4.724;2023-05-10T06:09:19;25.27;;;17.00;;
9597;SDS011;4837;50.890;4.724;2023-05-10T06:11:45;22.65;;;16.92;;
9597;SDS011;4837;50.890;4.724;2023-05-10T06:14:11;26.35;;;17.83;;
9597;SDS011;4837;50.890;4.724;2023-05-10T06:16:37;25.45;;;17.73;;
9597;SDS011;4837;50.890;4.724;2023-05-10T06:19:04;25.75;;;17.23;;
9597;SDS011;4837;50.890;4.724;2023-05-10T06:21:30;25.27;;;16.55;;
9597;SDS011;4837;50.890;4.724;2023-05-10T06:23:56;24.08;;;17.38;;
9597;SDS011;4837;50.890;4.724;2023-05-10T06:26:22;23.55;;;17.88;;
9597;SDS011;4837;50.890;4.724;2023-05-10T06:28:48;26.77;;;17.90;;
9597;SDS011;4837;50.890;4.724;2023-05-10T06:31:14;22.92;;;17.20;;
9597;SDS011;4837;50.890;4.724;2023-05-10T06:33:41;25.73;;;17.58;;
9597;SDS011;4837;50.890;4.724;2023-05-10T06:36:07;25.80;;;17.23;;
9597;SDS011;4837;50.890;4.724;2023-05-10T06:38:33;26.52;;;18.27;;
9597;SDS011;4837;50.890;4.724;2023-05-10T06:40:59;24.75;;;17.65;;
9597;SDS011;4837;50.890;4.724;2023-05-10T06:43:25;25.05;;;17.40;;
9597;SDS011;4837;50.890;4.724;2023-05-10T06:45:53;25.67;;;17.10;;
9597;SDS011;4837;50.890;4.724;2023-05-10T06:48:19;25.02;;;17.48;;
9597;SDS011;4837;50.890;4.724;2023-05-10T06:50:45;24.90;;;17.67;;
9597;SDS011;4837;50.890;4.724;2023-05-10T06:53:11;24.83;;;16.55;;
9597;SDS011;4837;50.890;4.724;2023-05-10T06:55:38;25.25;;;17.00;;
9597;SDS011;4837;50.890;4.724;2023-05-10T06:58:04;23.67;;;16.45;;
9597;SDS011;4837;50.890;4.724;2023-05-10T07:00:31;22.17;;;17.23;;
9597;SDS011;4837;50.890;4.724;2023-05-10T07:02:57;21.65;;;14.52;;
9597;SDS011;4837;50.890;4.724;2023-05-10T07:05:23;21.80;;;14.20;;
9597;SDS011;4837;50.890;4.724;2023-05-10T07:07:49;16.95;;;12.68;;
9597;SDS011;4837;50.890;4.724;2023-05-10T07:10:16;13.80;;;9.88;;
9597;SDS011;4837;50.890;4.724;2023-05-10T07:12:42;11.23;;;7.95;;
9597;SDS011;4837;50.890;4.724;2023-05-10T07:15:09;10.68;;;7.75;;
9597;SDS011;4837;50.890;4.724;2023-05-10T07:17:35;10.98;;;6.50;;
9597;SDS011;4837;50.890;4.724;2023-05-10T07:20:01;7.55;;;6.03;;
9597;SDS011;4837;50.890;4.724;2023-05-10T07:22:28;7.22;;;5.65;;
9597;SDS011;4837;50.890;4.724;2023-05-10T07:24:55;6.57;;;5.75;;
9597;SDS011;4837;50.890;4.724;2023-05-10T07:27:21;8.40;;;5.63;;
9597;SDS011;4837;50.890;4.724;2023-05-10T07:29:47;10.23;;;6.38;;
9597;SDS011;4837;50.890;4.724;2023-05-10T07:32:13;7.32;;;5.38;;
9597;SDS011;4837;50.890;4.724;2023-05-10T07:34:39;9.85;;;5.75;;
9597;SDS011;4837;50.890;4.724;2023-05-10T07:37:05;10.82;;;7.30;;
9597;SDS011;4837;50.890;4.724;2023-05-10T07:39:32;9.45;;;5.72;;
9597;SDS011;4837;50.890;4.724;2023-05-10T07:41:58;8.40;;;5.88;;
9597;SDS011;4837;50.890;4.724;2023-05-10T07:44:24;8.13;;;5.43;;
9597;SDS011;4837;50.890;4.724;2023-05-10T07:46:50;6.20;;;4.07;;
9597;SDS011;4837;50.890;4.724;2023-05-10T07:49:17;6.05;;;4.18;;
9597;SDS011;4837;50.890;4.724;2023-05-10T07:51:43;4.38;;;3.80;;
9597;SDS011;4837;50.890;4.724;2023-05-10T07:54:09;7.63;;;4.05;;
9597;SDS011;4837;50.890;4.724;2023-05-10T07:56:35;6.38;;;4.00;;
9597;SDS011;4837;50.890;4.724;2023-05-10T07:59:02;4.78;;;4.00;;
9597;SDS011;4837;50.890;4.724;2023-05-10T08:01:30;6.43;;;4.68;;
9597;SDS011;4837;50.890;4.724;2023-05-10T08:03:57;7.20;;;4.95;;
9597;SDS011;4837;50.890;4.724;2023-05-10T08:06:23;6.80;;;4.97;;
9597;SDS011;4837;50.890;4.724;2023-05-10T08:08:52;12.23;;;7.40;;
9597;SDS011;4837;50.890;4.724;2023-05-10T08:11:21;11.98;;;7.68;;
9597;SDS011;4837;50.890;4.724;2023-05-10T08:13:48;11.95;;;8.10;;
9597;SDS011;4837;50.890;4.724;2023-05-10T08:16:15;12.88;;;9.57;;
9597;SDS011;4837;50.890;4.724;2023-05-10T08:18:42;17.08;;;9.02;;
9597;SDS011;4837;50.890;4.724;2023-05-10T08:21:09;15.18;;;9.65;;
9597;SDS011;4837;50.890;4.724;2023-05-10T08:23:36;12.95;;;7.88;;
9597;SDS011;4837;50.890;4.724;2023-05-10T08:26:02;12.60;;;8.38;;
9597;SDS011;4837;50.890;4.724;2023-05-10T08:28:28;12.57;;;8.65;;
9597;SDS011;4837;50.890;4.724;2023-05-10T08:30:55;13.13;;;8.32;;
9597;SDS011;4837;50.890;4.724;2023-05-10T08:33:21;18.30;;;9.77;;
9597;SDS011;4837;50.890;4.724;2023-05-10T08:35:47;13.80;;;9.07;;
9597;SDS011;4837;50.890;4.724;2023-05-10T08:38:13;16.60;;;8.63;;
9597;SDS011;4837;50.890;4.724;2023-05-10T08:40:41;12.50;;;8.52;;
9597;SDS011;4837;50.890;4.724;2023-05-10T08:43:08;13.20;;;9.25;;
9597;SDS011;4837;50.890;4.724;2023-05-10T08:45:39;12.32;;;8.60;;
9597;SDS011;4837;50.890;4.724;2023-05-10T08:48:06;13.60;;;8.70;;
9597;SDS011;4837;50.890;4.724;2023-05-10T08:50:34;13.95;;;8.57;;
9597;SDS011;4837;50.890;4.724;2023-05-10T08:53:01;11.95;;;7.93;;
9597;SDS011;4837;50.890;4.724;2023-05-10T08:55:29;12.07;;;8.55;;
9597;SDS011;4837;50.890;4.724;2023-05-10T08:57:55;11.57;;;8.18;;
9597;SDS011;4837;50.890;4.724;2023-05-10T09:00:22;13.68;;;8.00;;
9597;SDS011;4837;50.890;4.724;2023-05-10T09:02:49;12.43;;;8.07;;
9597;SDS011;4837;50.890;4.724;2023-05-10T09:05:15;9.70;;;7.00;;
9597;SDS011;4837;50.890;4.724;2023-05-10T09:07:42;9.57;;;7.57;;
9597;SDS011;4837;50.890;4.724;2023-05-10T09:10:09;11.25;;;7.13;;
9597;SDS011;4837;50.890;4.724;2023-05-10T09:12:35;11.23;;;7.30;;
9597;SDS011;4837;50.890;4.724;2023-05-10T09:15:02;12.90;;;7.82;;
9597;SDS011;4837;50.890;4.724;2023-05-10T09:17:29;11.45;;;7.40;;
9597;SDS011;4837;50.890;4.724;2023-05-10T09:20:03;10.32;;;8.00;;
9597;SDS011;4837;50.890;4.724;2023-05-10T09:22:32;10.50;;;7.35;;
9597;SDS011;4837;50.890;4.724;2023-05-10T09:25:06;9.98;;;7.28;;
9597;SDS011;4837;50.890;4.724;2023-05-10T09:27:32;10.25;;;7.13;;
9597;SDS011;4837;50.890;4.724;2023-05-10T09:29:59;8.55;;;6.38;;
9597;SDS011;4837;50.890;4.724;2023-05-10T09:32:44;9.68;;;5.95;;
9597;SDS011;4837;50.890;4.724;2023-05-10T09:35:14;8.02;;;5.95;;
9597;SDS011;4837;50.890;4.724;2023-05-10T09:37:41;8.75;;;5.90;;
9597;SDS011;4837;50.890;4.724;2023-05-10T09:40:10;8.95;;;5.63;;
9597;SDS011;4837;50.890;4.724;2023-05-10T09:42:38;8.80;;;5.70;;
9597;SDS011;4837;50.890;4.724;2023-05-10T09:45:05;7.63;;;5.82;;
9597;SDS011;4837;50.890;4.724;2023-05-10T09:47:32;8.32;;;6.22;;
9597;SDS011;4837;50.890;4.724;2023-05-10T09:49:59;7.70;;;5.18;;
9597;SDS011;4837;50.890;4.724;2023-05-10T09:55:14;6.90;;;4.75;;
9597;SDS011;4837;50.890;4.724;2023-05-10T09:57:40;6.75;;;4.85;;
9597;SDS011;4837;50.890;4.724;2023-05-10T10:00:07;7.80;;;4.80;;
9597;SDS011;4837;50.890;4.724;2023-05-10T10:02:35;5.30;;;4.22;;
9597;SDS011;4837;50.890;4.724;2023-05-10T10:05:01;5.68;;;4.35;;
9597;SDS011;4837;50.890;4.724;2023-05-10T10:07:28;5.03;;;4.13;;
9597;SDS011;4837;50.890;4.724;2023-05-10T10:09:55;5.15;;;3.35;;
9597;SDS011;4837;50.890;4.724;2023-05-10T10:12:21;5.38;;;4.05;;
9597;SDS011;4837;50.890;4.724;2023-05-10T10:14:47;5.55;;;3.90;;
9597;SDS011;4837;50.890;4.724;2023-05-10T10:17:15;4.03;;;3.15;;
9597;SDS011;4837;50.890;4.724;2023-05-10T10:19:42;4.57;;;3.63;;
9597;SDS011;4837;50.890;4.724;2023-05-10T10:22:08;7.90;;;4.10;;
9597;SDS011;4837;50.890;4.724;2023-05-10T10:24:37;5.07;;;3.47;;
9597;SDS011;4837;50.890;4.724;2023-05-10T10:27:09;6.57;;;4.38;;
9597;SDS011;4837;50.890;4.724;2023-05-10T10:29:49;3.03;;;2.55;;
9597;SDS011;4837;50.890;4.724;2023-05-10T10:32:19;3.45;;;3.15;;
9597;SDS011;4837;50.890;4.724;2023-05-10T10:34:48;6.38;;;4.05;;
9597;SDS011;4837;50.890;4.724;2023-05-10T10:37:14;4.07;;;3.67;;
9597;SDS011;4837;50.890;4.724;2023-05-10T10:39:40;5.28;;;3.50;;
9597;SDS011;4837;50.890;4.724;2023-05-10T10:42:06;4.60;;;3.40;;
9597;SDS011;4837;50.890;4.724;2023-05-10T10:44:34;4.35;;;2.92;;
9597;SDS011;4837;50.890;4.724;2023-05-10T10:49:27;3.03;;;2.40;;
9597;SDS011;4837;50.890;4.724;2023-05-10T10:54:38;4.55;;;2.88;;
9597;SDS011;4837;50.890;4.724;2023-05-10T10:57:11;2.90;;;2.25;;
9597;SDS011;4837;50.890;4.724;2023-05-10T10:59:44;3.47;;;2.92;;
9597;SDS011;4837;50.890;4.724;2023-05-10T11:04:56;5.13;;;2.58;;
9597;SDS011;4837;50.890;4.724;2023-05-10T11:07:22;2.72;;;2.17;;
9597;SDS011;4837;50.890;4.724;2023-05-10T11:09:50;7.00;;;2.40;;
9597;SDS011;4837;50.890;4.724;2023-05-10T11:12:18;5.03;;;3.40;;
9597;SDS011;4837;50.890;4.724;2023-05-10T11:14:49;4.68;;;3.80;;
9597;SDS011;4837;50.890;4.724;2023-05-10T11:17:23;3.70;;;2.15;;
9597;SDS011;4837;50.890;4.724;2023-05-10T11:22:50;1.67;;;1.58;;
9597;SDS011;4837;50.890;4.724;2023-05-10T11:25:17;1.98;;;1.40;;
9597;SDS011;4837;50.890;4.724;2023-05-10T11:27:43;2.03;;;1.50;;
9597;SDS011;4837;50.890;4.724;2023-05-10T11:30:10;2.05;;;1.73;;
9597;SDS011;4837;50.890;4.724;2023-05-10T11:32:40;3.58;;;1.60;;
9597;SDS011;4837;50.890;4.724;2023-05-10T11:35:07;1.77;;;1.40;;
9597;SDS011;4837;50.890;4.724;2023-05-10T11:37:33;3.45;;;1.20;;
9597;SDS011;4837;50.890;4.724;2023-05-10T11:40:00;1.20;;;1.10;;
9597;SDS011;4837;50.890;4.724;2023-05-10T11:42:29;1.55;;;1.45;;
9597;SDS011;4837;50.890;4.724;2023-05-10T11:44:55;1.40;;;1.30;;
9597;SDS011;4837;50.890;4.724;2023-05-10T11:47:22;2.63;;;1.77;;
9597;SDS011;4837;50.890;4.724;2023-05-10T11:49:48;1.40;;;1.30;;
9597;SDS011;4837;50.890;4.724;2023-05-10T11:52:15;2.83;;;1.42;;
9597;SDS011;4837;50.890;4.724;2023-05-10T11:54:44;2.88;;;1.40;;
9597;SDS011;4837;50.890;4.724;2023-05-10T11:57:11;1.40;;;1.30;;
9597;SDS011;4837;50.890;4.724;2023-05-10T11:59:37;1.40;;;1.30;;
9597;SDS011;4837;50.890;4.724;2023-05-10T12:02:03;2.33;;;1.70;;
9597;SDS011;4837;50.890;4.724;2023-05-10T12:04:30;4.53;;;2.10;;
9597;SDS011;4837;50.890;4.724;2023-05-10T12:06:56;2.95;;;1.80;;
9597;SDS011;4837;50.890;4.724;2023-05-10T12:09:22;1.98;;;1.77;;
9597;SDS011;4837;50.890;4.724;2023-05-10T12:11:49;2.70;;;1.90;;
9597;SDS011;4837;50.890;4.724;2023-05-10T12:14:15;2.85;;;2.20;;
9597;SDS011;4837;50.890;4.724;2023-05-10T12:16:42;3.35;;;2.50;;
9597;SDS011;4837;50.890;4.724;2023-05-10T12:19:09;3.03;;;2.30;;
9597;SDS011;4837;50.890;4.724;2023-05-10T12:21:35;2.58;;;2.35;;
9597;SDS011;4837;50.890;4.724;2023-05-10T12:24:02;2.63;;;2.20;;
9597;SDS011;4837;50.890;4.724;2023-05-10T12:26:28;3.20;;;2.80;;
9597;SDS011;4837;50.890;4.724;2023-05-10T12:28:55;2.80;;;2.50;;
9597;SDS011;4837;50.890;4.724;2023-05-10T12:31:52;2.55;;;2.30;;
9597;SDS011;4837;50.890;4.724;2023-05-10T12:34:32;3.20;;;2.17;;
9597;SDS011;4837;50.890;4.724;2023-05-10T12:36:59;2.75;;;2.55;;
9597;SDS011;4837;50.890;4.724;2023-05-10T12:39:25;2.95;;;2.47;;
9597;SDS011;4837;50.890;4.724;2023-05-10T12:41:52;2.67;;;2.20;;
9597;SDS011;4837;50.890;4.724;2023-05-10T12:44:18;2.75;;;2.40;;
9597;SDS011;4837;50.890;4.724;2023-05-10T12:46:44;2.65;;;2.35;;
9597;SDS011;4837;50.890;4.724;2023-05-10T12:49:11;2.60;;;2.30;;
9597;SDS011;4837;50.890;4.724;2023-05-10T12:51:37;4.38;;;2.47;;
9597;SDS011;4837;50.890;4.724;2023-05-10T12:54:03;3.10;;;2.80;;
9597;SDS011;4837;50.890;4.724;2023-05-10T12:56:29;2.30;;;2.10;;
9597;SDS011;4837;50.890;4.724;2023-05-10T12:58:56;3.20;;;2.45;;
9597;SDS011;4837;50.890;4.724;2023-05-10T13:01:22;2.75;;;2.20;;
9597;SDS011;4837;50.890;4.724;2023-05-10T13:03:48;2.40;;;2.20;;
9597;SDS011;4837;50.890;4.724;2023-05-10T13:06:14;2.90;;;2.20;;
9597;SDS011;4837;50.890;4.724;2023-05-10T13:08:40;2.38;;;2.05;;
9597;SDS011;4837;50.890;4.724;2023-05-10T13:11:06;4.00;;;2.03;;
9597;SDS011;4837;50.890;4.724;2023-05-10T13:13:34;4.22;;;2.00;;
9597;SDS011;4837;50.890;4.724;2023-05-10T13:16:00;2.38;;;2.00;;
9597;SDS011;4837;50.890;4.724;2023-05-10T13:18:26;3.05;;;2.30;;
9597;SDS011;4837;50.890;4.724;2023-05-10T13:20:53;2.50;;;2.30;;
9597;SDS011;4837;50.890;4.724;2023-05-10T13:23:19;2.72;;;2.17;;
9597;SDS011;4837;50.890;4.724;2023-05-10T13:25:45;3.08;;;2.78;;
9597;SDS011;4837;50.890;4.724;2023-05-10T13:28:12;2.78;;;2.38;;
9597;SDS011;4837;50.890;4.724;2023-05-10T13:30:38;2.85;;;2.53;;
9597;SDS011;4837;50.890;4.724;2023-05-10T13:33:04;3.22;;;2.30;;
9597;SDS011;4837;50.890;4.724;2023-05-10T13:35:30;2.80;;;2.47;;
9597;SDS011;4837;50.890;4.724;2023-05-10T13:37:56;2.70;;;2.47;;
9597;SDS011;4837;50.890;4.724;2023-05-10T13:40:22;2.60;;;2.28;;
9597;SDS011;4837;50.890;4.724;2023-05-10T13:42:49;3.90;;;2.60;;
9597;SDS011;4837;50.890;4.724;2023-05-10T13:45:15;4.05;;;2.30;;
9597;SDS011;4837;50.890;4.724;2023-05-10T13:47:41;2.83;;;2.33;;
9597;SDS011;4837;50.890;4.724;2023-05-10T13:50:07;3.17;;;2.35;;
9597;SDS011;4837;50.890;4.724;2023-05-10T13:52:34;2.55;;;2.25;;
9597;SDS011;4837;50.890;4.724;2023-05-10T13:55:00;2.17;;;1.90;;
9597;SDS011;4837;50.890;4.724;2023-05-10T13:57:26;3.03;;;2.42;;
9597;SDS011;4837;50.890;4.724;2023-05-10T13:59:54;2.60;;;2.40;;
9597;SDS011;4837;50.890;4.724;2023-05-10T14:02:20;3.28;;;2.38;;
9597;SDS011;4837;50.890;4.724;2023-05-10T14:04:46;2.47;;;2.28;;
9597;SDS011;4837;50.890;4.724;2023-05-10T14:07:13;4.15;;;2.50;;
9597;SDS011;4837;50.890;4.724;2023-05-10T14:09:39;2.42;;;2.22;;
9597;SDS011;4837;50.890;4.724;2023-05-10T14:12:05;3.15;;;2.20;;
9597;SDS011;4837;50.890;4.724;2023-05-10T14:14:31;2.60;;;2.15;;
9597;SDS011;4837;50.890;4.724;2023-05-10T14:16:58;2.63;;;1.95;;
9597;SDS011;4837;50.890;4.724;2023-05-10T14:19:24;2.35;;;2.15;;
9597;SDS011;4837;50.890;4.724;2023-05-10T14:21:51;2.67;;;2.47;;
9597;SDS011;4837;50.890;4.724;2023-05-10T14:24:18;2.60;;;2.40;;
9597;SDS011;4837;50.890;4.724;2023-05-10T14:26:44;2.53;;;2.33;;
9597;SDS011;4837;50.890;4.724;2023-05-10T14:29:10;2.72;;;2.35;;
9597;SDS011;4837;50.890;4.724;2023-05-10T14:31:36;2.92;;;2.53;;
9597;SDS011;4837;50.890;4.724;2023-05-10T14:34:02;3.22;;;2.50;;
9597;SDS011;4837;50.890;4.724;2023-05-10T14:36:28;2.83;;;2.63;;
9597;SDS011;4837;50.890;4.724;2023-05-10T14:38:55;3.40;;;3.10;;
9597;SDS011;4837;50.890;4.724;2023-05-10T14:41:21;3.63;;;3.30;;
9597;SDS011;4837;50.890;4.724;2023-05-10T14:43:47;4.60;;;2.70;;
9597;SDS011;4837;50.890;4.724;2023-05-10T14:46:14;3.40;;;3.10;;
9597;SDS011;4837;50.890;4.724;2023-05-10T14:48:40;4.95;;;3.28;;
9597;SDS011;4837;50.890;4.724;2023-05-10T14:51:07;3.63;;;2.70;;
9597;SDS011;4837;50.890;4.724;2023-05-10T14:53:33;3.67;;;3.28;;
9597;SDS011;4837;50.890;4.724;2023-05-10T14:55:59;3.60;;;3.00;;
9597;SDS011;4837;50.890;4.724;2023-05-10T14:58:28;4.00;;;3.28;;
9597;SDS011;4837;50.890;4.724;2023-05-10T15:00:58;3.83;;;3.00;;
9597;SDS011;4837;50.890;4.724;2023-05-10T15:03:24;3.88;;;3.00;;
9597;SDS011;4837;50.890;4.724;2023-05-10T15:05:50;4.28;;;3.08;;
9597;SDS011;4837;50.890;4.724;2023-05-10T15:08:17;6.45;;;3.45;;
9597;SDS011;4837;50.890;4.724;2023-05-10T15:10:44;3.90;;;3.42;;
9597;SDS011;4837;50.890;4.724;2023-05-10T15:13:10;4.15;;;3.40;;
9597;SDS011;4837;50.890;4.724;2023-05-10T15:15:36;6.60;;;3.70;;
9597;SDS011;4837;50.890;4.724;2023-05-10T15:18:02;4.20;;;3.80;;
9597;SDS011;4837;50.890;4.724;2023-05-10T15:20:29;5.10;;;3.90;;
9597;SDS011;4837;50.890;4.724;2023-05-10T15:22:55;3.95;;;3.20;;
9597;SDS011;4837;50.890;4.724;2023-05-10T15:25:21;4.65;;;4.15;;
9597;SDS011;4837;50.890;4.724;2023-05-10T15:27:48;5.20;;;4.70;;
9597;SDS011;4837;50.890;4.724;2023-05-10T15:30:14;5.40;;;4.75;;
9597;SDS011;4837;50.890;4.724;2023-05-10T15:32:41;5.97;;;4.82;;
9597;SDS011;4837;50.890;4.724;2023-05-10T15:35:08;6.45;;;5.70;;